Portada
METAR-TAF:

METAR-TAF

Aeroports :

Trang, Tailàndia

latitud: 07-31N, longitud: 099-37E, altitud: 14 m

Observació

L'informe es va fer fa 2 hores i 13 minuts, a les 01:00 UTC
Vent 2 kt amb direcció variable
Temperatura 25°C
Humitat 89%
Pressió 1012 hPa
Visibilitat: 7000 m
Escasses núvols a una alçada de 2000 ft

METAR: VTST 010100Z VRB02KT 7000 FEW020 25/23 Q1012 NOSIG

Hora: 10:13 (03:13 UTC)

Pronòstic

L'informe es va fer fa 4 hores i 13 minuts, a les 23:00 UTC
Pronòstic vàlid del 01 a les 00 UTC al 01 a les 24 UTC
Vent kt del Nord
Visibilitat 10 km o més
Escasses núvols a una alçada de 2000 ft
Evolucionant progressivament
l' 01 a les 02 UTC al 01 a les 04 UTC
Vent 6 kt del Est/Nord-Est
Evolucionant progressivament
l' 01 a les 06 UTC al 01 a les 08 UTC
Vent 6 kt del Sud/Sud-Oest

TAF: VTST 282300Z 0100/0124 00000KT 9999 FEW020 BECMG 0102/0104 06006KT BECMG 0106/0108 20006KT

Observacions i pronòstics meteorològics de més de 4000 aeroports (METAR i TAF).

Les estacions disponibles són els punts grocs i vermells al mapa.

Posi el ratolí al punt desitjat per veure el nom de l'estació.

Feu clic per veure les observacions i els pronòstics meteorològics.

Per canviar el mapa: feu clic els botons verds amb una creu de color negre per apropar; al botó verd amb un guió per allunyar la imatge; o en les fletxes verdes per a mapes adjacents.


METAR-TAF: